Albion, ME (04910)

6:40 PM EDT on September 01, 2014 (GMT -0400)
China Lake | Change Station
CLOSE
Current Station
Personal Weather Station
Location: South China, ME
Elevation: 194 ft
Nearby Weather Stations

Elev 194 ft 44.46 °N, 69.51 °W | Updated 14 seconds ago

Mostly Cloudy
Mostly Cloudy
72.7 °F
Feels Like 72.7 °F
N
1.6
Wind Variable Wind from SE
Gusts 1.6 mph

Today
High -- | Low -- °F
--% Chance of Precip.
Yesterday
High -- | Low -- °F
Precip. -- in
6:00 AM 7:14 PM
Waxing Crescent, 45% visible
Pressure 29.88 in
Visibility 6.0 miles
Clouds Few 4400 ft
Scattered Clouds 5000 ft
Mostly Cloudy 7000 ft
Dew Point 72 °F
Humidity 99%
Rainfall 0.00 in
Snow Depth Not available.
UV 0 out of 12
Pollen 4.30 out of 12
Ozone Good
Flu Activity Not available.
METAR KWVL 012235Z 00000KT 6SM FEW044 SCT050 BKN070 23/22 A2988 RMK AO1

More Conditions Fewer Conditions

Pressure 29.88 in
Visibility 6.0 miles
Clouds Few 4400 ft
Scattered Clouds 5000 ft
Mostly Cloudy 7000 ft
Dew Point 72 °F
Humidity 99%
Rainfall 0.00 in
Snow Depth Not available.
UV 0 out of 12
Pollen 4.30 out of 12
Ozone Good
Flu Activity Not available.
METAR KWVL 012235Z 00000KT 6SM FEW044 SCT050 BKN070 23/22 A2988 RMK AO1

More Conditions Fewer Conditions

10-Day Weather Forecast

Almanac

Astronomy

Sep. 01, 2014 Rise Set
Actual Time 6:00 AM EDT 7:14 PM EDT
Civil Twilight 5:30 AM EDT 7:44 PM EDT
Nautical Twilight 4:54 AM EDT 8:20 PM EDT
Astronomical Twilight 4:15 AM EDT 8:58 PM EDT
Moon 12:58 PM EDT 10:56 PM EDT
Length of Visible Light 14h 14m
Length of Day
13h 14m
Tomorrow will be 2m 59s shorter.
Waxing Crescent, 45% of the Moon is Illuminated
Today
Waxing Crescent
Sep 2
First Quarter
Sep 8
Full
Sep 15
Last Quarter
Sep 24
New

Today's Extremes

State Highs State Lows

Community

WunderPhotos

Upload Photos

1,749,427 photos uploaded!

Nearby

Air Quality

  Air Quality AQ Index Pollutant
Yesterday Good
OZONE
Current Good
OZONE
Monday Good
OZONE
Monday Good
PM2.5
Tuesday Good
OZONE
Tuesday Good
PM2.5
Wednesday Good
OZONE
Wednesday Good
PM2.5

Snow Depth

Station Depth Elevation
No new snow has been reported.

Earthquake Activity

City Distance Mag. Time & Date
No recent earthquake activity has been reported nearby.
Minimum magnitude displayed is 2.5.

Coastal Water Temperatures

Place Temperature
Bar Harbor, ME 57.9 °F
Portland, ME 59.0 °F

Nearby Weather Stations